createdAt,value
2019-02-25T00:01:15.944Z,101496.25
2019-02-25T00:03:48.577Z,101498.15
2019-02-25T00:06:20.993Z,101498.66
2019-02-25T00:08:53.402Z,101500.50
2019-02-25T00:11:25.804Z,101504.87
2019-02-25T00:13:58.211Z,101503.89
2019-02-25T00:16:30.529Z,101510.30
2019-02-25T00:19:03.015Z,101502.70
2019-02-25T00:21:35.406Z,101500.50
2019-02-25T00:24:07.812Z,101504.16
2019-02-25T00:26:40.192Z,101500.84
2019-02-25T00:29:12.536Z,101507.31
2019-02-25T00:31:44.926Z,101508.80
2019-02-25T00:34:17.581Z,101513.34
2019-02-25T00:36:49.964Z,101507.63
2019-02-25T00:39:22.407Z,101506.58
2019-02-25T00:41:54.807Z,101503.02
2019-02-25T00:44:27.210Z,101508.80
2019-02-25T00:46:59.608Z,101515.53
2019-02-25T00:49:32.037Z,101522.00
2019-02-25T00:52:04.422Z,101525.12
2019-02-25T00:54:36.855Z,101525.91
2019-02-25T00:57:09.231Z,101528.02
2019-02-25T00:59:41.628Z,101524.44
2019-02-25T01:02:14.002Z,101519.05
2019-02-25T01:04:46.402Z,101527.31
2019-02-25T01:07:18.769Z,101526.88
2019-02-25T01:09:51.388Z,101524.45
2019-02-25T01:12:23.765Z,101528.25
2019-02-25T01:14:56.114Z,101528.90
2019-02-25T01:17:28.492Z,101520.20
2019-02-25T01:20:00.898Z,101515.28
2019-02-25T01:22:33.338Z,101513.92
2019-02-25T01:25:07.590Z,101515.54
2019-02-25T01:27:39.979Z,101507.64
2019-02-25T01:30:13.095Z,101507.69
2019-02-25T01:32:45.478Z,101498.02
2019-02-25T01:35:17.883Z,101495.47
2019-02-25T01:37:50.265Z,101501.27
2019-02-25T01:40:22.823Z,101485.92
2019-02-25T01:42:55.215Z,101496.23
2019-02-25T01:45:27.559Z,101488.29
2019-02-25T01:47:59.970Z,101490.94
2019-02-25T01:50:32.365Z,101478.63
2019-02-25T01:53:04.761Z,101483.20
2019-02-25T01:55:37.163Z,101482.08
2019-02-25T01:58:09.577Z,101479.06
2019-02-25T02:00:42.035Z,101465.26
2019-02-25T02:03:14.407Z,101471.39
2019-02-25T02:05:46.808Z,101472.02
2019-02-25T02:08:19.179Z,101475.78
2019-02-25T02:10:51.680Z,101472.43
2019-02-25T02:13:24.019Z,101463.56
2019-02-25T02:15:56.471Z,101467.20
2019-02-25T02:18:28.878Z,101461.91
2019-02-25T02:21:01.278Z,101467.53
2019-02-25T02:23:33.648Z,101460.80
2019-02-25T02:26:06.062Z,101463.66
2019-02-25T02:28:38.461Z,101458.91
2019-02-25T02:31:10.857Z,101460.39
2019-02-25T02:33:43.246Z,101458.33
2019-02-25T02:36:15.673Z,101454.85
2019-02-25T02:38:48.042Z,101466.05
2019-02-25T02:41:20.425Z,101459.51
2019-02-25T02:43:52.804Z,101454.06
2019-02-25T02:47:31.496Z,101452.99
2019-02-25T02:50:04.092Z,101450.64
2019-02-25T02:52:36.456Z,101451.38
2019-02-25T02:55:09.304Z,101448.80
2019-02-25T02:57:41.693Z,101452.74
2019-02-25T03:00:16.965Z,101449.60
2019-02-25T03:02:49.405Z,101456.03
2019-02-25T03:05:21.843Z,101458.80
2019-02-25T03:07:54.314Z,101461.61
2019-02-25T03:10:26.690Z,101461.50
2019-02-25T03:12:59.084Z,101463.59
2019-02-25T03:15:31.487Z,101469.54
2019-02-25T03:18:03.957Z,101471.45
2019-02-25T03:20:36.259Z,101475.61
2019-02-25T03:23:08.654Z,101469.58
2019-02-25T03:25:40.952Z,101471.02
2019-02-25T03:28:13.273Z,101467.97
2019-02-25T03:30:45.656Z,101471.27
2019-02-25T03:33:17.983Z,101473.65
2019-02-25T03:35:50.286Z,101477.09
2019-02-25T03:38:22.780Z,101488.82
2019-02-25T03:40:55.188Z,101481.51
2019-02-25T03:43:27.583Z,101480.95
2019-02-25T03:45:59.900Z,101484.84
2019-02-25T03:48:32.307Z,101474.45
2019-02-25T03:51:04.655Z,101477.20
2019-02-25T03:53:37.052Z,101469.89
2019-02-25T03:56:09.358Z,101464.68
2019-02-25T03:58:41.762Z,101473.58
2019-02-25T04:01:14.015Z,101461.33
2019-02-25T04:03:46.417Z,101467.95
2019-02-25T04:06:18.790Z,101474.61
2019-02-25T04:08:51.116Z,101471.02
2019-02-25T04:11:23.491Z,101460.19
2019-02-25T04:13:55.915Z,101464.09
2019-02-25T04:16:28.297Z,101469.53
2019-02-25T04:19:00.624Z,101466.58
2019-02-25T04:21:33.030Z,101471.45
2019-02-25T04:24:05.439Z,101462.94
2019-02-25T04:26:37.820Z,101460.45
2019-02-25T04:29:10.225Z,101460.08
2019-02-25T04:31:42.727Z,101469.88
2019-02-25T04:34:15.160Z,101479.16
2019-02-25T04:36:47.518Z,101473.28
2019-02-25T04:39:19.928Z,101464.45
2019-02-25T04:41:52.337Z,101470.59
2019-02-25T04:44:24.731Z,101467.55
2019-02-25T04:46:57.057Z,101468.55
2019-02-25T04:49:29.446Z,101478.36
2019-02-25T04:52:01.840Z,101482.55
2019-02-25T04:54:34.220Z,101479.45
2019-02-25T04:57:06.618Z,101476.58
2019-02-25T04:59:39.020Z,101465.33
2019-02-25T05:02:11.423Z,101480.78
2019-02-25T05:04:43.797Z,101471.43
2019-02-25T05:07:16.191Z,101465.44
2019-02-25T05:09:48.567Z,101462.78
2019-02-25T05:12:20.956Z,101466.03
2019-02-25T05:14:53.346Z,101456.52
2019-02-25T05:17:25.818Z,101457.17
2019-02-25T05:19:58.198Z,101459.83
2019-02-25T05:22:30.521Z,101453.58
2019-02-25T05:25:02.898Z,101458.02
2019-02-25T05:27:35.286Z,101469.34
2019-02-25T05:30:08.906Z,101468.88
2019-02-25T05:32:41.364Z,101469.70
2019-02-25T05:35:14.826Z,101466.49
2019-02-25T05:37:47.139Z,101474.81
2019-02-25T05:40:19.538Z,101476.94
2019-02-25T05:42:51.948Z,101471.59
2019-02-25T05:45:24.258Z,101473.56
2019-02-25T05:47:56.652Z,101465.89
2019-02-25T05:50:29.024Z,101464.52
2019-02-25T05:53:01.425Z,101466.53
2019-02-25T05:55:33.799Z,101455.55
2019-02-25T05:58:06.184Z,101462.16
2019-02-25T06:00:38.590Z,101471.18
2019-02-25T06:03:10.991Z,101479.28
2019-02-25T06:05:43.425Z,101477.83
2019-02-25T06:08:15.837Z,101471.54
2019-02-25T06:10:48.131Z,101473.28
2019-02-25T06:13:20.470Z,101478.70
2019-02-25T06:15:52.843Z,101474.22
2019-02-25T06:18:25.242Z,101474.88
2019-02-25T06:20:57.617Z,101460.81
2019-02-25T06:23:30.007Z,101481.33
2019-02-25T06:26:03.459Z,101475.50
2019-02-25T06:28:35.845Z,101481.84
2019-02-25T06:31:08.247Z,101471.92
2019-02-25T06:33:40.566Z,101474.50
2019-02-25T06:36:12.951Z,101476.24
2019-02-25T06:38:45.339Z,101481.63
2019-02-25T06:41:17.747Z,101482.56
2019-02-25T06:43:50.132Z,101491.98
2019-02-25T06:46:22.454Z,101491.14
2019-02-25T06:48:54.954Z,101492.97
2019-02-25T06:51:27.335Z,101490.91
2019-02-25T06:54:00.808Z,101497.88
2019-02-25T06:56:33.182Z,101493.59
2019-02-25T06:59:05.506Z,101495.25
2019-02-25T07:01:37.906Z,101488.87
2019-02-25T07:04:17.606Z,101492.31
2019-02-25T07:07:11.428Z,101493.44
2019-02-25T07:09:51.900Z,101486.97
2019-02-25T07:12:29.148Z,101489.11
2019-02-25T07:15:16.334Z,101482.39
2019-02-25T07:18:10.407Z,101481.27
2019-02-25T07:21:13.797Z,101489.83
2019-02-25T07:24:04.681Z,101484.66
2019-02-25T07:27:11.281Z,101481.22
2019-02-25T07:30:04.113Z,101485.80
2019-02-25T07:32:58.192Z,101485.12
2019-02-25T07:35:48.290Z,101475.16
2019-02-25T07:38:40.066Z,101484.54
2019-02-25T07:41:38.982Z,101484.34
2019-02-25T07:44:39.369Z,101489.48
2019-02-25T07:47:33.558Z,101489.11
2019-02-25T07:50:47.249Z,101486.06
2019-02-25T07:53:42.769Z,101493.03
2019-02-25T07:56:33.033Z,101486.03
2019-02-25T07:59:27.433Z,101483.69
2019-02-25T08:02:06.769Z,101488.15
2019-02-25T08:04:55.485Z,101485.30
2019-02-25T08:07:35.175Z,101483.43
2019-02-25T08:10:22.725Z,101483.41
2019-02-25T08:13:29.312Z,101488.49
2019-02-25T08:16:08.441Z,101480.61
2019-02-25T08:18:51.533Z,101478.89
2019-02-25T08:21:45.924Z,101479.56
2019-02-25T08:24:43.284Z,101489.02
2019-02-25T08:27:42.407Z,101491.73
2019-02-25T08:30:34.837Z,101499.19
2019-02-25T08:33:29.318Z,101498.06
2019-02-25T08:37:31.150Z,101499.98
2019-02-25T08:40:43.410Z,101505.83
2019-02-25T08:43:34.080Z,101505.03
2019-02-25T08:46:13.774Z,101505.70
2019-02-25T08:48:58.914Z,101506.00
2019-02-25T08:51:31.350Z,101513.75
2019-02-25T08:54:03.776Z,101509.34
2019-02-25T08:56:36.196Z,101504.92
2019-02-25T08:59:08.593Z,101503.14
2019-02-25T09:01:41.036Z,101503.81
2019-02-25T09:04:13.455Z,101500.28
2019-02-25T09:06:45.858Z,101500.02
2019-02-25T09:09:18.233Z,101504.63
2019-02-25T09:11:50.569Z,101502.02
2019-02-25T09:14:22.938Z,101500.84
2019-02-25T09:16:55.536Z,101499.74
2019-02-25T09:19:27.927Z,101493.59
2019-02-25T09:22:00.337Z,101495.28
2019-02-25T09:24:32.784Z,101496.34
2019-02-25T09:27:05.190Z,101499.12
2019-02-25T09:29:37.647Z,101501.06
2019-02-25T09:32:10.056Z,101500.03
2019-02-25T09:34:43.513Z,101502.46
2019-02-25T09:37:16.973Z,101496.70
2019-02-25T09:39:49.434Z,101498.20
2019-02-25T09:42:21.833Z,101495.33
2019-02-25T09:44:54.219Z,101493.97
2019-02-25T09:47:26.622Z,101487.95
2019-02-25T09:49:59.001Z,101485.82
2019-02-25T09:52:31.411Z,101482.32
2019-02-25T09:55:03.800Z,101472.45
2019-02-25T09:57:39.764Z,101473.11
2019-02-25T10:00:15.758Z,101476.75
2019-02-25T10:02:48.249Z,101477.63
2019-02-25T10:05:20.572Z,101474.78
2019-02-25T10:07:52.982Z,101469.79
2019-02-25T10:10:25.470Z,101472.34
2019-02-25T10:12:57.882Z,101472.77
2019-02-25T10:15:30.369Z,101474.87
2019-02-25T10:18:02.782Z,101467.92
2019-02-25T10:20:35.162Z,101464.33
2019-02-25T10:23:07.571Z,101453.03
2019-02-25T10:25:39.971Z,101454.84
2019-02-25T10:28:12.373Z,101448.41
2019-02-25T10:30:52.621Z,101445.91
2019-02-25T10:33:18.929Z,101446.67
2019-02-25T10:35:51.324Z,101446.93
2019-02-25T10:38:23.663Z,101449.64
2019-02-25T10:40:56.063Z,101449.03
2019-02-25T10:43:30.190Z,101449.83
2019-02-25T10:46:03.589Z,101448.38
2019-02-25T10:48:36.175Z,101446.34
2019-02-25T10:51:09.345Z,101441.13
2019-02-25T10:53:43.110Z,101443.11
2019-02-25T10:56:43.153Z,101444.65
2019-02-25T10:59:15.574Z,101439.61
2019-02-25T11:01:47.959Z,101437.36
2019-02-25T11:04:21.758Z,101436.16
2019-02-25T11:06:54.445Z,101430.15
2019-02-25T11:09:46.623Z,101433.45
2019-02-25T11:12:21.454Z,101430.83
2019-02-25T11:14:54.075Z,101424.09
2019-02-25T11:17:26.487Z,101428.44
2019-02-25T11:20:00.739Z,101423.53
2019-02-25T11:22:32.967Z,101425.55
2019-02-25T11:25:06.036Z,101428.61
2019-02-25T11:27:40.014Z,101429.12
2019-02-25T11:30:14.374Z,101431.29
2019-02-25T11:32:46.990Z,101426.66
2019-02-25T11:35:19.425Z,101424.97
2019-02-25T11:37:52.583Z,101424.30
2019-02-25T11:40:28.199Z,101426.42
2019-02-25T11:42:59.998Z,101421.81
2019-02-25T11:45:32.486Z,101422.47
2019-02-25T11:48:04.876Z,101419.92
2019-02-25T11:50:37.291Z,101420.16
2019-02-25T11:53:09.688Z,101416.65
2019-02-25T11:55:42.093Z,101412.50
2019-02-25T11:58:14.478Z,101409.93
2019-02-25T12:00:46.876Z,101406.17
2019-02-25T12:03:19.317Z,101408.98
2019-02-25T12:05:52.612Z,101402.08
2019-02-25T12:08:25.094Z,101401.03
2019-02-25T12:10:57.530Z,101394.56
2019-02-25T12:13:29.914Z,101391.59
2019-02-25T12:16:02.319Z,101386.91
2019-02-25T12:18:34.902Z,101388.35
2019-02-25T12:21:07.329Z,101385.21
2019-02-25T12:23:39.707Z,101384.19
2019-02-25T12:26:12.119Z,101379.22
2019-02-25T12:28:44.501Z,101381.54
2019-02-25T12:31:16.904Z,101382.91
2019-02-25T12:33:49.300Z,101378.89
2019-02-25T12:36:21.712Z,101379.11
2019-02-25T12:38:54.121Z,101377.36
2019-02-25T12:41:27.333Z,101378.05
2019-02-25T12:43:59.907Z,101375.84
2019-02-25T12:46:32.330Z,101377.36
2019-02-25T12:49:04.752Z,101369.89
2019-02-25T12:51:37.171Z,101373.27
2019-02-25T12:54:09.546Z,101367.47
2019-02-25T12:56:41.940Z,101366.09
2019-02-25T12:59:14.314Z,101361.69
2019-02-25T13:01:46.711Z,101353.12
2019-02-25T13:04:19.090Z,101342.88
2019-02-25T13:06:51.492Z,101343.59
2019-02-25T13:09:23.875Z,101333.80
2019-02-25T13:11:56.278Z,101338.09
2019-02-25T13:14:28.663Z,101333.99
2019-02-25T13:17:01.067Z,101338.31
2019-02-25T13:19:33.446Z,101337.28
2019-02-25T13:22:05.843Z,101336.30
2019-02-25T13:24:39.523Z,101337.52
2019-02-25T13:27:13.860Z,101330.28
2019-02-25T13:29:46.367Z,101327.55
2019-02-25T13:32:18.784Z,101329.96
2019-02-25T13:34:51.453Z,101329.22
2019-02-25T13:37:23.875Z,101327.55
2019-02-25T13:39:56.294Z,101317.01
2019-02-25T13:42:28.705Z,101308.77
2019-02-25T13:45:01.083Z,101309.72
2019-02-25T13:47:33.926Z,101303.95
2019-02-25T13:50:07.140Z,101300.08
2019-02-25T13:52:47.834Z,101295.18
2019-02-25T13:55:13.774Z,101284.17
2019-02-25T13:57:46.178Z,101283.88
2019-02-25T14:00:19.732Z,101278.08
2019-02-25T14:02:52.141Z,101284.09
2019-02-25T14:05:24.595Z,101277.34
2019-02-25T14:07:56.997Z,101271.89
2019-02-25T14:10:29.372Z,101266.41
2019-02-25T14:13:01.790Z,101263.00
2019-02-25T14:15:34.172Z,101260.95
2019-02-25T14:18:06.569Z,101247.06
2019-02-25T14:20:39.035Z,101241.52
2019-02-25T14:23:11.459Z,101239.78
2019-02-25T14:25:44.085Z,101234.06
2019-02-25T14:28:16.480Z,101233.01
2019-02-25T14:30:51.195Z,101234.41
2019-02-25T14:33:23.710Z,101234.56
2019-02-25T14:35:56.213Z,101231.26
2019-02-25T14:38:29.932Z,101229.60
2019-02-25T14:41:04.500Z,101227.75
2019-02-25T14:43:41.780Z,101222.78
2019-02-25T14:46:12.169Z,101220.44
2019-02-25T14:48:45.005Z,101214.57
2019-02-25T14:51:17.378Z,101219.08
2019-02-25T14:53:52.022Z,101219.97
2019-02-25T14:56:23.789Z,101215.03
2019-02-25T14:58:56.375Z,101211.13
2019-02-25T15:01:29.835Z,101210.30
2019-02-25T15:04:04.176Z,101211.12
2019-02-25T15:06:36.814Z,101208.15
2019-02-25T15:09:12.030Z,101210.57
2019-02-25T15:11:44.457Z,101215.07
2019-02-25T15:14:17.218Z,101210.88
2019-02-25T15:16:50.953Z,101216.43
2019-02-25T15:19:23.354Z,101218.28
2019-02-25T15:21:56.454Z,101224.22
2019-02-25T15:24:29.836Z,101221.42
2019-02-25T15:27:04.366Z,101216.03
2019-02-25T15:29:37.089Z,101212.75
2019-02-25T15:32:10.108Z,101209.90
2019-02-25T15:34:42.521Z,101216.30
2019-02-25T15:37:15.074Z,101214.86
2019-02-25T15:39:47.607Z,101218.76
2019-02-25T15:42:23.931Z,101218.21
2019-02-25T15:44:57.575Z,101213.16
2019-02-25T15:47:30.019Z,101214.13
2019-02-25T15:50:04.375Z,101217.00
2019-02-25T15:52:39.911Z,101221.42
2019-02-25T15:55:14.949Z,101227.36
2019-02-25T15:57:45.995Z,101223.51
2019-02-25T16:00:21.348Z,101220.20
2019-02-25T16:02:54.065Z,101216.11
2019-02-25T16:05:29.580Z,101219.98
2019-02-25T16:08:02.431Z,101213.23
2019-02-25T16:10:34.995Z,101206.34
2019-02-25T16:13:11.182Z,101208.09
2019-02-25T16:15:42.322Z,101204.08
2019-02-25T16:18:14.708Z,101206.66
2019-02-25T16:20:47.140Z,101206.64
2019-02-25T16:23:20.218Z,101206.67
2019-02-25T16:25:54.676Z,101202.89
2019-02-25T16:28:28.526Z,101203.84
2019-02-25T16:31:01.072Z,101205.00
2019-02-25T16:33:35.231Z,101208.61
2019-02-25T16:36:09.814Z,101212.75
2019-02-25T16:38:41.881Z,101212.62
2019-02-25T16:41:15.966Z,101213.50
2019-02-25T16:43:48.566Z,101212.63
2019-02-25T16:46:21.007Z,101210.16
2019-02-25T16:48:55.062Z,101213.45
2019-02-25T16:51:28.126Z,101220.41
2019-02-25T16:54:01.623Z,101218.41
2019-02-25T16:56:34.244Z,101221.39
2019-02-25T16:59:10.738Z,101220.30
2019-02-25T17:01:41.576Z,101219.33
2019-02-25T17:04:15.974Z,101218.88
2019-02-25T17:06:49.135Z,101217.91
2019-02-25T17:09:25.378Z,101221.20
2019-02-25T17:11:58.497Z,101218.15
2019-02-25T17:14:31.962Z,101222.66
2019-02-25T17:17:06.289Z,101230.36
2019-02-25T17:19:38.866Z,101238.50
2019-02-25T17:22:11.295Z,101239.22
2019-02-25T17:24:43.678Z,101243.69
2019-02-25T17:27:16.095Z,101253.91
2019-02-25T17:29:49.101Z,101252.78
2019-02-25T17:32:23.270Z,101251.66
2019-02-25T17:34:58.253Z,101259.69
2019-02-25T17:37:31.549Z,101261.17
2019-02-25T17:40:08.483Z,101267.34
2019-02-25T17:42:40.885Z,101265.77
2019-02-25T17:45:16.283Z,101255.10
2019-02-25T17:47:49.038Z,101258.88
2019-02-25T17:50:21.697Z,101258.53
2019-02-25T17:52:54.107Z,101260.33
2019-02-25T17:55:27.241Z,101259.73
2019-02-25T17:58:01.051Z,101263.63
2019-02-25T18:00:39.590Z,101259.33
2019-02-25T18:03:12.533Z,101266.98
2019-02-25T18:05:45.318Z,101265.83
2019-02-25T18:08:20.837Z,101268.65
2019-02-25T18:10:54.153Z,101275.12
2019-02-25T18:13:28.164Z,101280.63
2019-02-25T18:16:01.339Z,101281.42
2019-02-25T18:18:36.592Z,101284.12
2019-02-25T18:21:10.063Z,101289.21
2019-02-25T18:23:42.515Z,101284.79
2019-02-25T18:26:15.397Z,101287.91
2019-02-25T18:28:48.472Z,101291.87
2019-02-25T18:31:22.251Z,101290.11
2019-02-25T18:33:54.626Z,101292.67
2019-02-25T18:36:28.815Z,101298.48
2019-02-25T18:39:02.822Z,101300.27
2019-02-25T18:41:36.934Z,101297.47
2019-02-25T18:44:11.342Z,101300.69
2019-02-25T18:46:45.979Z,101294.51
2019-02-25T18:49:18.547Z,101291.34
2019-02-25T18:51:51.221Z,101293.33
2019-02-25T18:54:25.461Z,101288.09
2019-02-25T18:56:59.016Z,101286.25
2019-02-25T18:59:32.284Z,101286.55
2019-02-25T19:02:05.803Z,101282.30
2019-02-25T19:04:41.151Z,101289.68
2019-02-25T19:07:13.487Z,101288.19
2019-02-25T19:09:51.610Z,101291.53
2019-02-25T19:12:25.715Z,101296.73
2019-02-25T19:15:00.005Z,101295.12
2019-02-25T19:17:33.935Z,101294.86
2019-02-25T19:20:07.045Z,101297.10
2019-02-25T19:22:41.870Z,101303.25
2019-02-25T19:25:18.129Z,101300.34
2019-02-25T19:27:50.612Z,101295.43
2019-02-25T19:30:24.831Z,101299.12
2019-02-25T19:33:09.036Z,101303.70
2019-02-25T19:35:33.031Z,101299.75
2019-02-25T19:38:07.843Z,101302.45
2019-02-25T19:40:43.243Z,101303.23
2019-02-25T19:43:15.369Z,101303.97
2019-02-25T19:45:47.740Z,101308.94
2019-02-25T19:48:22.208Z,101307.83
2019-02-25T19:50:54.593Z,101313.88
2019-02-25T19:53:31.432Z,101312.97
2019-02-25T19:56:02.530Z,101315.59
2019-02-25T19:58:36.473Z,101313.47
2019-02-25T20:01:10.940Z,101319.45
2019-02-25T20:03:45.179Z,101317.78
2019-02-25T20:06:19.192Z,101315.16
2019-02-25T20:08:53.378Z,101318.83
2019-02-25T20:11:27.725Z,101320.59
2019-02-25T20:14:01.587Z,101323.45
2019-02-25T20:16:35.047Z,101322.88
2019-02-25T20:19:07.454Z,101324.83
2019-02-25T20:21:39.831Z,101328.19
2019-02-25T20:24:14.451Z,101326.27
2019-02-25T20:26:48.673Z,101323.91
2019-02-25T20:29:20.333Z,101318.30
2019-02-25T20:31:53.651Z,101319.55
2019-02-25T20:34:29.721Z,101319.55
2019-02-25T20:37:03.849Z,101321.11
2019-02-25T20:39:38.666Z,101321.39
2019-02-25T20:42:10.646Z,101322.80
2019-02-25T20:44:43.121Z,101322.28
2019-02-25T20:47:15.454Z,101322.30
2019-02-25T20:49:51.035Z,101322.02
2019-02-25T20:52:22.278Z,101325.22
2019-02-25T20:54:54.741Z,101328.61
2019-02-25T20:57:27.137Z,101326.75
2019-02-25T20:59:59.557Z,101326.84
2019-02-25T21:02:31.949Z,101321.02
2019-02-25T21:05:04.917Z,101317.75
2019-02-25T21:07:38.203Z,101311.63
2019-02-25T21:10:12.091Z,101317.19
2019-02-25T21:12:44.579Z,101321.83
2019-02-25T21:15:17.002Z,101316.64
2019-02-25T21:17:51.870Z,101310.31
2019-02-25T21:20:26.028Z,101307.20
2019-02-25T21:23:02.882Z,101310.68
2019-02-25T21:25:33.795Z,101305.06
2019-02-25T21:28:06.788Z,101305.20
2019-02-25T21:30:43.208Z,101305.04
2019-02-25T21:33:17.414Z,101307.89
2019-02-25T21:35:48.473Z,101305.16
2019-02-25T21:38:22.227Z,101304.30
2019-02-25T21:40:55.014Z,101299.25
2019-02-25T21:43:29.097Z,101301.30
2019-02-25T21:46:01.806Z,101300.17
2019-02-25T21:48:34.918Z,101299.09
2019-02-25T21:51:10.094Z,101293.70
2019-02-25T21:53:42.611Z,101296.37
2019-02-25T21:56:16.789Z,101294.54
2019-02-25T21:58:50.878Z,101293.57
2019-02-25T22:01:23.171Z,101291.26
2019-02-25T22:03:55.564Z,101284.07
2019-02-25T22:06:29.589Z,101285.69
2019-02-25T22:09:05.055Z,101281.00
2019-02-25T22:11:39.129Z,101278.27
2019-02-25T22:14:12.302Z,101281.16
2019-02-25T22:16:45.625Z,101274.69
2019-02-25T22:19:18.789Z,101281.45
2019-02-25T22:21:55.606Z,101280.42
2019-02-25T22:24:29.094Z,101273.67
2019-02-25T22:27:00.307Z,101279.67
2019-02-25T22:29:34.287Z,101283.33
2019-02-25T22:32:08.637Z,101282.22
2019-02-25T22:34:40.918Z,101282.80
2019-02-25T22:37:16.835Z,101275.88
2019-02-25T22:39:48.362Z,101275.66
2019-02-25T22:42:21.546Z,101276.09
2019-02-25T22:44:54.479Z,101281.49
2019-02-25T22:47:28.047Z,101279.48
2019-02-25T22:50:00.372Z,101278.02
2019-02-25T22:52:33.193Z,101279.69
2019-02-25T22:55:09.855Z,101285.19
2019-02-25T22:57:43.302Z,101287.06
2019-02-25T23:00:34.692Z,101283.36
2019-02-25T23:03:11.026Z,101279.05
2019-02-25T23:05:43.607Z,101275.25
2019-02-25T23:08:18.196Z,101281.33
2019-02-25T23:10:51.762Z,101279.62
2019-02-25T23:13:27.444Z,101271.22
2019-02-25T23:15:59.420Z,101267.13
2019-02-25T23:18:31.825Z,101265.08
2019-02-25T23:21:04.219Z,101273.28
2019-02-25T23:23:37.758Z,101277.38
2019-02-25T23:26:12.507Z,101281.37
2019-02-25T23:28:44.833Z,101290.28
2019-02-25T23:31:17.215Z,101299.48
2019-02-25T23:33:51.326Z,101298.11
2019-02-25T23:36:24.602Z,101294.16
2019-02-25T23:38:59.642Z,101290.28
2019-02-25T23:41:34.413Z,101287.73
2019-02-25T23:44:07.121Z,101291.77
2019-02-25T23:46:40.445Z,101289.07
2019-02-25T23:49:13.826Z,101288.19
2019-02-25T23:51:48.064Z,101296.86
2019-02-25T23:54:21.483Z,101300.64
2019-02-25T23:56:57.821Z,101302.84
2019-02-25T23:59:29.608Z,101302.56
